createdAt,value
2018-02-06T00:01:53.956Z,19.67
2018-02-06T00:04:20.402Z,17.90
2018-02-06T00:06:46.889Z,18.23
2018-02-06T00:09:14.179Z,17.15
2018-02-06T00:11:41.453Z,15.75
2018-02-06T00:24:56.202Z,12.97
2018-02-06T00:27:22.619Z,12.05
2018-02-06T00:29:49.107Z,11.43
2018-02-06T00:32:16.287Z,13.85
2018-02-06T00:34:42.716Z,10.70
2018-02-06T00:37:09.139Z,11.35
2018-02-06T00:39:35.686Z,11.45
2018-02-06T00:42:02.132Z,11.40
2018-02-06T00:44:29.406Z,9.63
2018-02-06T00:46:56.606Z,11.80
2018-02-06T00:49:23.142Z,10.07
2018-02-06T00:51:49.695Z,14.80
2018-02-06T00:54:16.871Z,11.32
2018-02-06T00:56:43.429Z,14.05
2018-02-06T00:59:10.601Z,12.90
2018-02-06T01:01:37.932Z,10.77
2018-02-06T01:04:04.364Z,11.35
2018-02-06T01:06:30.886Z,10.75
2018-02-06T01:08:58.168Z,10.77
2018-02-06T01:11:24.595Z,11.30
2018-02-06T01:13:51.073Z,12.65
2018-02-06T01:16:18.229Z,13.95
2018-02-06T01:18:44.701Z,14.73
2018-02-06T01:21:11.976Z,13.97
2018-02-06T01:23:39.250Z,15.50
2018-02-06T01:26:06.414Z,14.20
2018-02-06T01:28:33.696Z,14.15
2018-02-06T01:31:00.921Z,14.57
2018-02-06T01:33:31.006Z,13.32
2018-02-06T01:35:58.161Z,15.20
2018-02-06T01:38:24.601Z,14.63
2018-02-06T01:40:51.016Z,14.07
2018-02-06T01:43:17.462Z,14.80
2018-02-06T01:45:43.890Z,16.20
2018-02-06T01:48:11.062Z,15.77
2018-02-06T01:50:39.178Z,15.32
2018-02-06T01:53:05.614Z,14.50
2018-02-06T01:55:32.897Z,16.75
2018-02-06T01:58:00.089Z,16.83
2018-02-06T02:00:26.627Z,17.40
2018-02-06T02:02:53.817Z,16.95
2018-02-06T02:05:20.228Z,16.87
2018-02-06T02:07:46.654Z,19.65
2018-02-06T02:10:13.061Z,18.33
2018-02-06T02:12:39.522Z,17.33
2018-02-06T02:15:06.680Z,15.90
2018-02-06T02:17:33.851Z,17.07
2018-02-06T02:20:01.143Z,15.70
2018-02-06T02:22:28.305Z,16.00
2018-02-06T02:24:55.591Z,16.15
2018-02-06T02:27:22.043Z,17.73
2018-02-06T02:29:49.521Z,18.05
2018-02-06T02:32:16.730Z,17.63
2018-02-06T02:34:43.150Z,18.37
2018-02-06T02:37:10.334Z,17.98
2018-02-06T02:39:36.880Z,16.83
2018-02-06T04:39:18.039Z,18.37
2018-02-06T04:41:44.601Z,18.17
2018-02-06T04:44:11.872Z,19.10
2018-02-06T04:46:39.148Z,18.92
2018-02-06T04:49:05.711Z,17.75
2018-02-06T04:51:32.262Z,19.37
2018-02-06T04:53:59.540Z,18.05
2018-02-06T04:56:25.982Z,19.25
2018-02-06T04:58:53.179Z,18.25
2018-02-06T05:01:19.723Z,16.80
2018-02-06T05:03:46.871Z,17.52
2018-02-06T05:06:13.311Z,20.75
2018-02-06T05:08:39.746Z,16.87
2018-02-06T05:11:06.264Z,16.50
2018-02-06T05:13:33.418Z,15.82
2018-02-06T05:16:00.604Z,14.38
2018-02-06T05:18:31.769Z,17.70
2018-02-06T05:20:58.935Z,17.67
2018-02-06T05:23:26.087Z,15.75
2018-02-06T05:25:52.569Z,16.90
2018-02-06T05:28:19.845Z,15.02
2018-02-06T05:30:47.120Z,18.08
2018-02-06T05:33:15.007Z,19.10
2018-02-06T05:35:42.180Z,17.75
2018-02-06T05:38:09.452Z,15.98
2018-02-06T05:40:36.653Z,17.48
2018-02-06T05:43:03.285Z,18.08
2018-02-06T05:45:31.051Z,16.80
2018-02-06T05:47:57.470Z,26.48
2018-02-06T05:50:23.983Z,26.50
2018-02-06T05:52:50.440Z,21.08
2018-02-06T05:55:17.600Z,20.33
2018-02-06T05:57:44.752Z,18.95
2018-02-06T06:00:11.342Z,22.08
2018-02-06T06:02:37.930Z,20.17
2018-02-06T06:05:04.381Z,18.30
2018-02-06T06:07:30.915Z,20.17
2018-02-06T06:09:58.190Z,21.33
2018-02-06T06:12:24.627Z,18.85
2018-02-06T06:14:51.808Z,18.03
2018-02-06T06:17:18.996Z,19.35
2018-02-06T06:19:46.103Z,19.77
2018-02-06T06:22:12.564Z,17.05
2018-02-06T06:24:39.087Z,18.12
2018-02-06T06:27:05.633Z,19.60
2018-02-06T06:29:32.907Z,21.85
2018-02-06T06:32:00.185Z,20.50
2018-02-06T06:34:26.634Z,21.55
2018-02-06T06:36:53.890Z,24.92
2018-02-06T06:39:21.221Z,23.55
2018-02-06T06:41:48.768Z,23.05
2018-02-06T06:44:15.327Z,18.10
2018-02-06T06:46:42.601Z,19.75
2018-02-06T06:49:09.159Z,18.52
2018-02-06T06:51:36.433Z,17.63
2018-02-06T06:54:03.625Z,19.77
2018-02-06T06:56:30.166Z,23.90
2018-02-06T06:58:56.612Z,43.22
2018-02-06T07:01:23.894Z,42.60
2018-02-06T07:03:51.680Z,45.80
2018-02-06T07:06:19.093Z,49.50
2018-02-06T07:08:45.617Z,36.70
2018-02-06T07:11:12.799Z,53.87
2018-02-06T07:13:39.272Z,46.90
2018-02-06T07:16:05.802Z,47.30
2018-02-06T07:18:33.075Z,45.75
2018-02-06T07:20:59.536Z,41.08
2018-02-06T07:23:25.989Z,40.80
2018-02-06T07:25:53.165Z,38.30
2018-02-06T07:28:19.580Z,52.03
2018-02-06T07:30:45.977Z,63.70
2018-02-06T07:33:12.997Z,65.00
2018-02-06T07:35:39.445Z,65.18
2018-02-06T07:38:05.889Z,45.25
2018-02-06T07:40:32.293Z,52.13
2018-02-06T07:42:59.448Z,52.00
2018-02-06T07:45:25.888Z,52.30
2018-02-06T07:47:53.124Z,50.80
2018-02-06T07:50:19.665Z,41.70
2018-02-06T07:52:46.939Z,34.88
2018-02-06T07:55:14.135Z,31.12
2018-02-06T07:57:40.574Z,27.62
2018-02-06T08:00:06.986Z,28.83
2018-02-06T08:02:33.480Z,33.25
2018-02-06T08:05:00.638Z,39.63
2018-02-06T08:07:27.850Z,39.03
2018-02-06T08:09:54.575Z,39.10
2018-02-06T08:12:21.794Z,39.78
2018-02-06T08:14:48.322Z,23.02
2018-02-06T08:17:15.591Z,21.85
2018-02-06T08:19:42.791Z,21.12
2018-02-06T08:22:09.432Z,16.90
2018-02-06T08:24:35.886Z,18.03
2018-02-06T08:27:02.338Z,17.33
2018-02-06T08:29:28.812Z,18.02
2018-02-06T08:31:55.274Z,19.33
2018-02-06T08:34:21.807Z,18.30
2018-02-06T08:36:48.987Z,16.30
2018-02-06T08:39:15.423Z,16.90
2018-02-06T08:41:42.618Z,17.25
2018-02-06T08:44:09.167Z,16.55
2018-02-06T08:46:35.656Z,17.00
2018-02-06T08:49:02.181Z,18.20
2018-02-06T08:51:28.842Z,16.60
2018-02-06T08:53:55.281Z,16.40
2018-02-06T08:56:22.440Z,18.05
2018-02-06T08:58:48.857Z,16.98
2018-02-06T09:01:15.381Z,16.70
2018-02-06T09:03:41.942Z,19.20
2018-02-06T09:06:08.378Z,16.60
2018-02-06T09:08:34.852Z,17.73
2018-02-06T09:11:02.129Z,17.90
2018-02-06T09:13:28.626Z,16.10
2018-02-06T09:15:55.167Z,17.02
2018-02-06T09:18:21.703Z,15.73
2018-02-06T09:20:48.365Z,19.83
2018-02-06T09:23:16.045Z,22.37
2018-02-06T09:25:43.225Z,16.30
2018-02-06T09:28:09.673Z,14.80
2018-02-06T09:30:36.947Z,17.20
2018-02-06T09:33:04.294Z,17.98
2018-02-06T09:35:30.786Z,15.40
2018-02-06T09:37:57.339Z,15.90
2018-02-06T09:40:24.613Z,18.98
2018-02-06T09:42:51.051Z,18.50
2018-02-06T09:45:18.447Z,18.08
2018-02-06T09:47:45.640Z,18.12
2018-02-06T09:50:12.176Z,15.77
2018-02-06T09:52:39.452Z,24.67
2018-02-06T09:55:06.724Z,18.33
2018-02-06T09:57:34.511Z,28.70
2018-02-06T10:00:01.107Z,19.42
2018-02-06T10:02:27.729Z,16.42
2018-02-06T10:04:55.005Z,17.50
2018-02-06T10:07:22.277Z,18.65
2018-02-06T10:09:48.739Z,19.65
2018-02-06T10:12:16.092Z,18.60
2018-02-06T10:14:43.389Z,20.37
2018-02-06T10:17:09.828Z,22.67
2018-02-06T10:19:37.002Z,19.35
2018-02-06T10:22:04.169Z,19.37
2018-02-06T10:24:32.174Z,21.58
2018-02-06T10:26:59.449Z,23.87
2018-02-06T10:29:27.031Z,22.77
2018-02-06T10:31:53.518Z,22.75
2018-02-06T10:34:20.438Z,27.42
2018-02-06T10:36:47.831Z,24.25
2018-02-06T10:39:14.288Z,22.92
2018-02-06T10:41:41.739Z,25.88
2018-02-06T10:44:09.040Z,24.65
2018-02-06T10:46:36.315Z,100.80
2018-02-06T10:49:03.503Z,69.78
2018-02-06T10:51:29.938Z,48.35
2018-02-06T10:53:57.115Z,46.15
2018-02-06T10:56:24.393Z,49.95
2018-02-06T10:58:51.050Z,52.22
2018-02-06T11:01:17.454Z,46.00
2018-02-06T11:03:43.966Z,43.70
2018-02-06T11:06:10.419Z,55.20
2018-02-06T11:08:37.693Z,38.35
2018-02-06T11:11:04.459Z,41.05
2018-02-06T11:13:31.151Z,34.75
2018-02-06T11:15:57.676Z,33.63
2018-02-06T11:18:24.952Z,25.48
2018-02-06T11:20:52.136Z,28.42
2018-02-06T11:23:18.608Z,27.80
2018-02-06T11:25:45.954Z,23.87
2018-02-06T11:28:12.818Z,20.77
2018-02-06T11:30:39.377Z,21.85
2018-02-06T11:33:06.555Z,26.45
2018-02-06T11:35:34.283Z,21.65
2018-02-06T11:38:00.792Z,25.03
2018-02-06T11:40:27.948Z,20.33
2018-02-06T11:42:55.630Z,21.95
2018-02-06T11:45:22.038Z,20.40
2018-02-06T11:47:48.561Z,31.40
2018-02-06T11:50:16.807Z,22.17
2018-02-06T11:52:43.229Z,20.85
2018-02-06T11:55:09.697Z,43.33
2018-02-06T11:57:36.189Z,18.55
2018-02-06T12:00:03.413Z,19.65
2018-02-06T12:02:29.857Z,20.70
2018-02-06T12:04:56.223Z,19.65
2018-02-06T12:07:23.670Z,22.98
2018-02-06T12:09:50.927Z,32.08
2018-02-06T12:12:17.371Z,20.60
2018-02-06T12:14:44.555Z,18.65
2018-02-06T12:17:11.064Z,20.00
2018-02-06T12:19:39.038Z,22.70
2018-02-06T12:22:06.270Z,17.67
2018-02-06T12:24:32.765Z,22.73
2018-02-06T12:27:01.472Z,19.73
2018-02-06T12:29:27.928Z,19.87
2018-02-06T12:31:55.138Z,16.85
2018-02-06T12:34:21.659Z,17.80
2018-02-06T12:36:48.817Z,20.25
2018-02-06T12:39:15.942Z,18.02
2018-02-06T12:41:43.175Z,24.42
2018-02-06T12:44:10.552Z,19.80
2018-02-06T12:46:37.825Z,22.13
2018-02-06T12:49:04.328Z,21.25
2018-02-06T12:51:30.788Z,22.23
2018-02-06T12:53:57.194Z,19.25
2018-02-06T12:56:24.370Z,18.52
2018-02-06T12:58:50.827Z,35.38
2018-02-06T13:01:17.259Z,22.27
2018-02-06T13:03:43.639Z,19.80
2018-02-06T13:06:10.111Z,21.20
2018-02-06T13:08:36.607Z,19.87
2018-02-06T13:11:03.105Z,25.85
2018-02-06T13:13:29.527Z,23.25
2018-02-06T13:15:55.947Z,31.40
2018-02-06T13:18:22.370Z,22.27
2018-02-06T13:20:48.760Z,42.75
2018-02-06T13:23:15.981Z,29.00
2018-02-06T13:25:43.273Z,32.23
2018-02-06T13:28:10.545Z,28.87
2018-02-06T13:30:37.719Z,26.30
2018-02-06T13:33:04.638Z,27.55
2018-02-06T13:35:31.142Z,29.15
2018-02-06T13:50:26.161Z,30.50
2018-02-06T13:52:52.802Z,37.92
2018-02-06T13:55:19.976Z,32.85
2018-02-06T13:57:49.088Z,33.30
2018-02-06T14:00:15.567Z,32.17
2018-02-06T14:02:42.102Z,33.92
2018-02-06T14:05:09.306Z,32.90
2018-02-06T14:07:35.835Z,35.07
2018-02-06T14:10:06.191Z,38.95
2018-02-06T14:12:32.733Z,34.75
2018-02-06T14:14:59.915Z,36.05
2018-02-06T14:17:26.523Z,36.78
2018-02-06T14:19:53.022Z,37.25
2018-02-06T14:22:20.196Z,38.65
2018-02-06T14:24:46.646Z,37.95
2018-02-06T14:27:13.766Z,40.50
2018-02-06T14:29:40.477Z,39.17
2018-02-06T14:32:08.171Z,40.05
2018-02-06T14:34:34.572Z,37.53
2018-02-06T14:37:02.310Z,37.88
2018-02-06T14:39:28.765Z,36.28
2018-02-06T14:41:55.985Z,42.13
2018-02-06T14:44:22.492Z,38.67
2018-02-06T14:46:49.698Z,38.20
2018-02-06T14:49:16.065Z,38.28
2018-02-06T14:51:42.486Z,37.30
2018-02-06T14:54:08.933Z,35.33
2018-02-06T14:56:35.489Z,39.70
2018-02-06T14:59:02.689Z,40.40
2018-02-06T15:01:29.134Z,41.22
2018-02-06T15:03:55.566Z,43.78
2018-02-06T15:06:22.740Z,40.97
2018-02-06T15:08:50.038Z,41.15
2018-02-06T15:11:16.456Z,42.47
2018-02-06T15:13:42.873Z,42.57
2018-02-06T15:16:09.391Z,40.03
2018-02-06T15:18:36.605Z,40.63
2018-02-06T15:21:03.123Z,41.35
2018-02-06T15:23:30.394Z,43.22
2018-02-06T15:25:58.389Z,41.67
2018-02-06T15:28:24.862Z,41.80
2018-02-06T15:30:51.319Z,40.15
2018-02-06T15:33:18.771Z,42.50
2018-02-06T15:35:46.049Z,39.63
2018-02-06T15:38:13.327Z,47.03
2018-02-06T15:40:39.883Z,43.97
2018-02-06T15:43:07.157Z,45.47
2018-02-06T15:45:33.822Z,55.85
2018-02-06T15:48:00.380Z,45.85
2018-02-06T15:50:26.839Z,42.65
2018-02-06T15:52:53.393Z,53.13
2018-02-06T15:55:20.063Z,43.95
2018-02-06T15:57:46.561Z,52.40
2018-02-06T16:00:13.271Z,45.97
2018-02-06T16:02:40.443Z,45.45
2018-02-06T16:05:07.775Z,46.25
2018-02-06T16:07:34.192Z,58.13
2018-02-06T16:10:00.644Z,46.03
2018-02-06T16:12:27.337Z,45.60
2018-02-06T16:14:53.812Z,42.10
2018-02-06T16:17:20.277Z,47.13
2018-02-06T16:19:46.761Z,46.70
2018-02-06T16:22:13.933Z,43.97
2018-02-06T16:24:41.208Z,45.80
2018-02-06T16:27:08.634Z,48.75
2018-02-06T16:29:35.052Z,51.22
2018-02-06T16:32:01.514Z,47.10
2018-02-06T16:34:27.961Z,50.70
2018-02-06T16:36:54.545Z,48.83
2018-02-06T16:39:21.069Z,49.50
2018-02-06T16:41:50.081Z,48.15
2018-02-06T16:44:17.360Z,56.92
2018-02-06T16:46:44.584Z,51.77
2018-02-06T16:49:11.088Z,46.80
2018-02-06T16:51:38.330Z,46.58
2018-02-06T16:54:04.819Z,52.97
2018-02-06T16:56:32.254Z,52.45
2018-02-06T16:58:58.754Z,57.40
2018-02-06T17:01:25.887Z,304.25
2018-02-06T17:03:52.971Z,92.37
2018-02-06T17:06:19.451Z,312.12
2018-02-06T17:08:46.726Z,117.57
2018-02-06T17:11:14.004Z,54.53
2018-02-06T17:13:40.562Z,52.25
2018-02-06T17:16:07.939Z,60.73
2018-02-06T17:18:34.495Z,55.72
2018-02-06T17:21:01.051Z,53.45
2018-02-06T17:23:28.325Z,56.83
2018-02-06T17:25:55.517Z,63.87
2018-02-06T17:28:22.589Z,56.50
2018-02-06T17:30:49.128Z,56.37
2018-02-06T17:33:15.605Z,46.78
2018-02-06T17:35:41.990Z,47.80
2018-02-06T17:38:08.494Z,48.15
2018-02-06T17:40:35.649Z,47.33
2018-02-06T17:43:02.161Z,48.90
2018-02-06T17:45:28.594Z,45.55
2018-02-06T17:47:55.113Z,46.72
2018-02-06T17:50:23.020Z,45.45
2018-02-06T17:52:51.218Z,47.95
2018-02-06T17:55:18.368Z,46.05
2018-02-06T17:57:44.848Z,43.72
2018-02-06T18:00:12.126Z,44.53
2018-02-06T18:02:39.402Z,44.80
2018-02-06T18:05:06.161Z,41.88
2018-02-06T18:07:32.743Z,45.03
2018-02-06T18:09:59.234Z,41.60
2018-02-06T18:12:25.736Z,40.60
2018-02-06T18:14:53.520Z,40.65
2018-02-06T18:17:20.792Z,40.55
2018-02-06T18:19:48.067Z,40.63
2018-02-06T18:22:15.346Z,40.03
2018-02-06T18:24:41.818Z,39.90
2018-02-06T18:27:09.035Z,41.67
2018-02-06T18:29:36.247Z,39.38
2018-02-06T18:32:02.803Z,43.05
2018-02-06T18:34:29.941Z,38.40
2018-02-06T18:36:56.897Z,69.05
2018-02-06T18:39:23.308Z,46.65
2018-02-06T18:41:49.754Z,38.22
2018-02-06T18:44:16.975Z,42.60
2018-02-06T18:46:43.476Z,43.85
2018-02-06T18:49:10.649Z,36.10
2018-02-06T18:51:37.875Z,36.08
2018-02-06T18:54:04.336Z,36.47
2018-02-06T18:56:30.759Z,36.25
2018-02-06T18:58:57.174Z,39.35
2018-02-06T19:01:29.672Z,34.88
2018-02-06T19:03:58.023Z,34.05
2018-02-06T19:06:24.540Z,35.85
2018-02-06T19:08:51.761Z,32.92
2018-02-06T19:11:19.197Z,40.00
2018-02-06T19:13:45.605Z,39.35
2018-02-06T19:16:12.210Z,40.05
2018-02-06T19:18:38.609Z,40.47
2018-02-06T19:21:05.119Z,40.83
2018-02-06T19:23:31.538Z,48.53
2018-02-06T19:25:58.036Z,64.68
2018-02-06T19:28:24.566Z,156.40
2018-02-06T19:30:50.976Z,250.90
2018-02-06T19:33:17.373Z,172.62
2018-02-06T19:35:45.793Z,164.40
2018-02-06T19:38:13.073Z,197.25
2018-02-06T19:40:40.347Z,147.97
2018-02-06T19:43:07.517Z,133.90
2018-02-06T19:45:34.793Z,105.70
2018-02-06T19:48:02.069Z,130.73
2018-02-06T19:50:28.608Z,86.43
2018-02-06T19:52:55.821Z,93.32
2018-02-06T19:55:22.356Z,72.60
2018-02-06T19:57:48.914Z,77.90
2018-02-06T20:00:16.395Z,44.22
2018-02-06T20:02:43.668Z,53.67
2018-02-06T20:05:10.796Z,34.72
2018-02-06T20:07:37.300Z,32.65
2018-02-06T20:10:04.264Z,47.58
2018-02-06T20:12:32.032Z,33.75
2018-02-06T20:14:58.710Z,47.83
2018-02-06T20:17:25.269Z,64.15
2018-02-06T20:19:55.511Z,37.50
2018-02-06T20:22:22.700Z,37.60
2018-02-06T20:24:49.105Z,29.90
2018-02-06T20:27:16.359Z,30.50
2018-02-06T20:29:42.870Z,33.97
2018-02-06T20:32:09.840Z,30.75
2018-02-06T20:34:36.397Z,32.80
2018-02-06T20:37:03.057Z,36.03
2018-02-06T20:39:30.341Z,31.62
2018-02-06T20:41:56.789Z,29.90
2018-02-06T20:44:23.209Z,29.45
2018-02-06T20:46:49.669Z,33.20
2018-02-06T20:49:16.161Z,32.57
2018-02-06T20:51:42.694Z,34.88
2018-02-06T20:54:09.092Z,34.17
2018-02-06T20:56:35.498Z,32.28
2018-02-06T20:59:01.950Z,34.90
2018-02-06T21:01:28.407Z,30.27
2018-02-06T21:03:54.891Z,30.75
2018-02-06T21:06:22.058Z,32.83
2018-02-06T21:08:48.610Z,34.05
2018-02-06T21:11:15.062Z,34.78
2018-02-06T21:13:42.352Z,40.53
2018-02-06T21:16:08.910Z,34.92
2018-02-06T21:18:36.103Z,35.17
2018-02-06T21:21:02.587Z,34.40
2018-02-06T21:23:29.099Z,37.75
2018-02-06T21:25:55.661Z,37.63
2018-02-06T21:28:22.929Z,38.15
2018-02-06T21:30:50.173Z,35.55
2018-02-06T21:33:17.070Z,33.75
2018-02-06T21:35:44.240Z,32.30
2018-02-06T21:38:11.618Z,41.92
2018-02-06T21:40:38.893Z,40.85
2018-02-06T21:43:05.317Z,40.50
2018-02-06T21:45:33.339Z,34.73
2018-02-06T21:48:00.533Z,30.52
2018-02-06T21:50:26.944Z,30.25
2018-02-06T21:52:53.392Z,32.10
2018-02-06T21:55:19.924Z,31.70
2018-02-06T21:57:46.438Z,32.20
2018-02-06T22:00:17.616Z,30.77
2018-02-06T22:02:44.047Z,32.90
2018-02-06T22:05:11.203Z,32.65
2018-02-06T22:07:37.633Z,31.77
2018-02-06T22:10:04.841Z,34.15
2018-02-06T22:12:32.065Z,34.20
2018-02-06T22:14:58.509Z,31.90
2018-02-06T22:17:24.981Z,34.45
2018-02-06T22:19:51.398Z,33.13
2018-02-06T22:22:17.852Z,32.58
2018-02-06T22:24:44.222Z,34.58
2018-02-06T22:27:10.762Z,35.17
2018-02-06T22:29:38.039Z,33.23
2018-02-06T22:32:05.195Z,34.78
2018-02-06T22:34:32.363Z,34.22
2018-02-06T22:36:59.595Z,32.97
2018-02-06T22:39:26.115Z,35.20
2018-02-06T22:41:52.543Z,33.35
2018-02-06T22:44:18.958Z,35.60
2018-02-06T22:46:45.482Z,34.78
2018-02-06T22:49:11.940Z,34.38
2018-02-06T22:51:38.416Z,34.90
2018-02-06T22:54:05.053Z,35.10
2018-02-06T22:56:32.330Z,35.35
2018-02-06T22:58:59.503Z,35.42
2018-02-06T23:01:25.944Z,36.47
2018-02-06T23:03:53.116Z,34.67
2018-02-06T23:06:20.294Z,36.67
2018-02-06T23:08:47.448Z,36.35
2018-02-06T23:11:14.987Z,37.15
2018-02-06T23:13:42.275Z,36.90
2018-02-06T23:16:08.665Z,38.80
2018-02-06T23:18:35.959Z,36.47
2018-02-06T23:21:02.455Z,38.42
2018-02-06T23:23:28.972Z,36.55
2018-02-06T23:25:56.348Z,39.58
2018-02-06T23:28:22.798Z,35.55
2018-02-06T23:30:49.936Z,35.97
2018-02-06T23:33:17.501Z,37.05
2018-02-06T23:35:44.018Z,38.27
2018-02-06T23:38:10.451Z,35.38
2018-02-06T23:40:36.878Z,39.80
2018-02-06T23:43:03.381Z,39.13
2018-02-06T23:45:30.759Z,36.67
2018-02-06T23:47:57.950Z,37.67
2018-02-06T23:50:24.454Z,37.90
2018-02-06T23:52:50.910Z,40.92
2018-02-06T23:55:18.127Z,38.60
2018-02-06T23:57:44.639Z,37.40
